sensor_id;sensor_type;location;lat;lon;timestamp;pressure;altitude;pressure_sealevel;temperature;humidity
60437;BME280;46289;51.992;4.498;2023-06-22T00:01:20;102123.56;;;17.48;85.27
60437;BME280;46289;51.992;4.498;2023-06-22T00:03:28;102118.13;;;17.50;85.33
60437;BME280;46289;51.992;4.498;2023-06-22T00:05:33;102129.63;;;17.50;85.42
60437;BME280;46289;51.992;4.498;2023-06-22T00:07:41;102113.84;;;17.47;85.16
60437;BME280;46289;51.992;4.498;2023-06-22T00:09:46;102115.63;;;17.47;84.30
60437;BME280;46289;51.992;4.498;2023-06-22T00:11:52;102107.03;;;17.42;85.00
60437;BME280;46289;51.992;4.498;2023-06-22T00:14:00;102112.72;;;17.34;84.13
60437;BME280;46289;51.992;4.498;2023-06-22T00:16:05;102116.38;;;17.31;85.14
60437;BME280;46289;51.992;4.498;2023-06-22T00:18:10;102113.66;;;17.33;84.92
60437;BME280;46289;51.992;4.498;2023-06-22T00:20:16;102100.66;;;17.27;84.79
60437;BME280;46289;51.992;4.498;2023-06-22T00:22:21;102107.78;;;17.26;84.84
60437;BME280;46289;51.992;4.498;2023-06-22T00:24:33;102110.59;;;17.23;85.23
60437;BME280;46289;51.992;4.498;2023-06-22T00:26:38;102104.41;;;17.23;86.25
60437;BME280;46289;51.992;4.498;2023-06-22T00:28:44;102110.59;;;17.23;86.72
60437;BME280;46289;51.992;4.498;2023-06-22T00:30:49;102106.97;;;17.24;86.26
60437;BME280;46289;51.992;4.498;2023-06-22T00:32:58;102100.81;;;17.24;87.94
60437;BME280;46289;51.992;4.498;2023-06-22T00:35:05;102104.56;;;17.20;85.73
60437;BME280;46289;51.992;4.498;2023-06-22T00:37:11;102101.41;;;17.11;86.09
60437;BME280;46289;51.992;4.498;2023-06-22T00:39:16;102091.72;;;17.10;87.03
60437;BME280;46289;51.992;4.498;2023-06-22T00:41:24;102090.06;;;17.08;86.66
60437;BME280;46289;51.992;4.498;2023-06-22T00:43:30;102094.56;;;17.06;86.88
60437;BME280;46289;51.992;4.498;2023-06-22T00:45:35;102096.38;;;17.05;87.53
60437;BME280;46289;51.992;4.498;2023-06-22T00:47:40;102090.38;;;17.02;87.31
60437;BME280;46289;51.992;4.498;2023-06-22T00:49:47;102085.22;;;16.99;87.68
60437;BME280;46289;51.992;4.498;2023-06-22T00:51:54;102084.34;;;16.98;88.35
60437;BME280;46289;51.992;4.498;2023-06-22T00:54:01;102080.75;;;16.99;87.45
60437;BME280;46289;51.992;4.498;2023-06-22T00:56:07;102083.47;;;16.98;86.76
60437;BME280;46289;51.992;4.498;2023-06-22T00:58:18;102079.94;;;16.97;87.81
60437;BME280;46289;51.992;4.498;2023-06-22T01:00:24;102090.44;;;17.00;87.39
60437;BME280;46289;51.992;4.498;2023-06-22T01:02:32;102082.47;;;17.00;87.59
60437;BME280;46289;51.992;4.498;2023-06-22T01:04:39;102080.75;;;16.99;87.97
60437;BME280;46289;51.992;4.498;2023-06-22T01:06:50;102080.16;;;16.93;87.66
60437;BME280;46289;51.992;4.498;2023-06-22T01:09:05;102069.84;;;16.86;87.89
60437;BME280;46289;51.992;4.498;2023-06-22T01:11:17;102076.88;;;16.87;87.70
60437;BME280;46289;51.992;4.498;2023-06-22T01:13:32;102082.25;;;16.86;89.27
60437;BME280;46289;51.992;4.498;2023-06-22T01:15:42;102081.31;;;16.87;88.04
60437;BME280;46289;51.992;4.498;2023-06-22T01:17:50;102083.19;;;16.85;88.91
60437;BME280;46289;51.992;4.498;2023-06-22T01:20:02;102074.44;;;16.83;88.11
60437;BME280;46289;51.992;4.498;2023-06-22T01:22:10;102076.31;;;16.81;88.96
60437;BME280;46289;51.992;4.498;2023-06-22T01:24:22;102074.44;;;16.83;89.24
60437;BME280;46289;51.992;4.498;2023-06-22T01:26:36;102074.59;;;16.80;90.05
60437;BME280;46289;51.992;4.498;2023-06-22T01:28:46;102077.16;;;16.81;89.54
60437;BME280;46289;51.992;4.498;2023-06-22T01:30:52;102072.72;;;16.82;89.72
60437;BME280;46289;51.992;4.498;2023-06-22T01:33:10;102067.41;;;16.82;90.08
60437;BME280;46289;51.992;4.498;2023-06-22T01:35:16;102065.84;;;16.78;89.45
60437;BME280;46289;51.992;4.498;2023-06-22T01:37:22;102063.22;;;16.76;90.01
60437;BME280;46289;51.992;4.498;2023-06-22T01:39:29;102070.72;;;16.66;89.71
60437;BME280;46289;51.992;4.498;2023-06-22T01:41:37;102070.72;;;16.66;91.14
60437;BME280;46289;51.992;4.498;2023-06-22T01:43:48;102079.50;;;16.68;90.27
60437;BME280;46289;51.992;4.498;2023-06-22T01:45:54;102077.78;;;16.67;90.97
60437;BME280;46289;51.992;4.498;2023-06-22T01:48:00;102074.28;;;16.67;90.87
60437;BME280;46289;51.992;4.498;2023-06-22T01:50:06;102079.50;;;16.68;90.83
60437;BME280;46289;51.992;4.498;2023-06-22T01:52:12;102077.78;;;16.67;90.64
60437;BME280;46289;51.992;4.498;2023-06-22T01:54:17;102074.38;;;16.64;91.15
60437;BME280;46289;51.992;4.498;2023-06-22T01:56:23;102073.78;;;16.59;90.76
60437;BME280;46289;51.992;4.498;2023-06-22T01:58:29;102069.47;;;16.56;90.60
60437;BME280;46289;51.992;4.498;2023-06-22T02:00:38;102072.31;;;16.52;91.00
60437;BME280;46289;51.992;4.498;2023-06-22T02:02:52;102066.22;;;16.50;90.41
60437;BME280;46289;51.992;4.498;2023-06-22T02:05:01;102063.06;;;16.41;91.65
60437;BME280;46289;51.992;4.498;2023-06-22T02:07:11;102064.84;;;16.41;92.15
60437;BME280;46289;51.992;4.498;2023-06-22T02:09:20;102071.88;;;16.42;90.89
60437;BME280;46289;51.992;4.498;2023-06-22T02:11:30;102074.63;;;16.40;90.81
60437;BME280;46289;51.992;4.498;2023-06-22T02:13:36;102069.41;;;16.37;91.37
60437;BME280;46289;51.992;4.498;2023-06-22T02:15:47;102060.75;;;16.34;90.65
60437;BME280;46289;51.992;4.498;2023-06-22T02:17:53;102069.66;;;16.33;91.77
60437;BME280;46289;51.992;4.498;2023-06-22T02:20:02;102063.47;;;16.32;91.96
60437;BME280;46289;51.992;4.498;2023-06-22T02:22:11;102058.28;;;16.29;91.10
60437;BME280;46289;51.992;4.498;2023-06-22T02:24:16;102053.84;;;16.30;90.76
60437;BME280;46289;51.992;4.498;2023-06-22T02:26:21;102057.44;;;16.29;90.67
60437;BME280;46289;51.992;4.498;2023-06-22T02:28:28;102052.28;;;16.26;91.04
60437;BME280;46289;51.992;4.498;2023-06-22T02:30:33;102052.41;;;16.22;90.68
60437;BME280;46289;51.992;4.498;2023-06-22T02:32:41;102055.13;;;16.21;91.62
60437;BME280;46289;51.992;4.498;2023-06-22T02:34:46;102053.28;;;16.23;92.11
60437;BME280;46289;51.992;4.498;2023-06-22T02:36:51;102052.47;;;16.21;92.39
60437;BME280;46289;51.992;4.498;2023-06-22T02:39:01;102051.56;;;16.22;92.50
60437;BME280;46289;51.992;4.498;2023-06-22T02:41:06;102051.69;;;16.19;92.22
60437;BME280;46289;51.992;4.498;2023-06-22T02:43:15;102044.84;;;16.13;91.75
60437;BME280;46289;51.992;4.498;2023-06-22T02:45:20;102049.16;;;16.16;92.12
60437;BME280;46289;51.992;4.498;2023-06-22T02:47:25;102047.50;;;16.13;92.09
60437;BME280;46289;51.992;4.498;2023-06-22T02:49:33;102050.09;;;16.15;92.71
60437;BME280;46289;51.992;4.498;2023-06-22T02:51:39;102058.13;;;16.13;91.77
60437;BME280;46289;51.992;4.498;2023-06-22T02:53:45;102057.25;;;16.13;93.47
60437;BME280;46289;51.992;4.498;2023-06-22T02:55:50;102051.09;;;16.12;93.01
60437;BME280;46289;51.992;4.498;2023-06-22T02:57:55;102052.00;;;16.11;93.57
60437;BME280;46289;51.992;4.498;2023-06-22T03:00:03;102052.09;;;16.10;92.47
60437;BME280;46289;51.992;4.498;2023-06-22T03:02:21;102058.25;;;16.10;92.73
60437;BME280;46289;51.992;4.498;2023-06-22T03:04:29;102060.09;;;16.08;92.56
60437;BME280;46289;51.992;4.498;2023-06-22T03:06:36;102068.16;;;16.07;92.63
60437;BME280;46289;51.992;4.498;2023-06-22T03:08:43;102074.22;;;16.09;93.57
60437;BME280;46289;51.992;4.498;2023-06-22T03:10:48;102072.59;;;16.06;93.49
60437;BME280;46289;51.992;4.498;2023-06-22T03:12:53;102073.31;;;16.10;93.33
60437;BME280;46289;51.992;4.498;2023-06-22T03:15:00;102060.19;;;16.07;93.11
60437;BME280;46289;51.992;4.498;2023-06-22T03:17:05;102054.94;;;16.05;93.08
60437;BME280;46289;51.992;4.498;2023-06-22T03:19:10;102042.53;;;16.06;93.66
60437;BME280;46289;51.992;4.498;2023-06-22T03:21:16;102039.03;;;16.05;94.03
60437;BME280;46289;51.992;4.498;2023-06-22T03:23:28;102038.03;;;16.08;93.93
60437;BME280;46289;51.992;4.498;2023-06-22T03:25:32;102031.88;;;16.07;94.58
60437;BME280;46289;51.992;4.498;2023-06-22T03:27:38;102043.28;;;16.09;94.65
60437;BME280;46289;51.992;4.498;2023-06-22T03:29:43;102038.75;;;16.11;94.55
60437;BME280;46289;51.992;4.498;2023-06-22T03:31:48;102031.75;;;16.10;94.72
60437;BME280;46289;51.992;4.498;2023-06-22T03:33:54;102037.75;;;16.14;94.78
60437;BME280;46289;51.992;4.498;2023-06-22T03:36:00;102036.91;;;16.13;95.12
60437;BME280;46289;51.992;4.498;2023-06-22T03:38:05;102028.03;;;16.14;94.88
60437;BME280;46289;51.992;4.498;2023-06-22T03:40:13;102023.66;;;16.13;95.30
60437;BME280;46289;51.992;4.498;2023-06-22T03:42:19;102024.78;;;16.08;95.10
60437;BME280;46289;51.992;4.498;2023-06-22T03:44:25;102026.63;;;16.06;94.65
60437;BME280;46289;51.992;4.498;2023-06-22T03:46:30;102026.72;;;16.04;95.38
60437;BME280;46289;51.992;4.498;2023-06-22T03:48:35;102023.22;;;16.04;94.49
60437;BME280;46289;51.992;4.498;2023-06-22T03:50:40;102020.47;;;16.05;94.13
60437;BME280;46289;51.992;4.498;2023-06-22T03:52:46;102022.28;;;16.05;94.29
60437;BME280;46289;51.992;4.498;2023-06-22T03:54:53;102022.34;;;16.03;93.97
60437;BME280;46289;51.992;4.498;2023-06-22T03:57:03;102020.63;;;16.02;94.67
60437;BME280;46289;51.992;4.498;2023-06-22T03:59:08;102021.34;;;16.06;94.96
60437;BME280;46289;51.992;4.498;2023-06-22T04:01:13;102023.06;;;16.07;94.69
60437;BME280;46289;51.992;4.498;2023-06-22T04:03:19;102024.88;;;16.06;94.29
60437;BME280;46289;51.992;4.498;2023-06-22T04:05:28;102018.63;;;16.07;94.73
60437;BME280;46289;51.992;4.498;2023-06-22T04:07:33;102019.19;;;16.14;94.86
60437;BME280;46289;51.992;4.498;2023-06-22T04:09:39;102015.34;;;16.21;95.23
60437;BME280;46289;51.992;4.498;2023-06-22T04:11:47;102014.28;;;16.25;95.34
60437;BME280;46289;51.992;4.498;2023-06-22T04:13:54;102012.41;;;16.27;94.83
60437;BME280;46289;51.992;4.498;2023-06-22T04:16:00;102013.28;;;16.28;94.45
60437;BME280;46289;51.992;4.498;2023-06-22T04:18:05;102016.78;;;16.28;95.03
60437;BME280;46289;51.992;4.498;2023-06-22T04:20:11;102018.31;;;16.34;94.84
60437;BME280;46289;51.992;4.498;2023-06-22T04:22:16;102011.00;;;16.39;94.32
60437;BME280;46289;51.992;4.498;2023-06-22T04:24:24;102015.25;;;16.43;94.46
60437;BME280;46289;51.992;4.498;2023-06-22T04:26:30;102016.84;;;16.45;94.67
60437;BME280;46289;51.992;4.498;2023-06-22T04:28:39;102019.47;;;16.47;94.56
60437;BME280;46289;51.992;4.498;2023-06-22T04:30:47;102024.47;;;16.53;94.15
60437;BME280;46289;51.992;4.498;2023-06-22T04:32:52;102017.09;;;16.60;94.30
60437;BME280;46289;51.992;4.498;2023-06-22T04:35:01;102021.03;;;16.70;94.25
60437;BME280;46289;51.992;4.498;2023-06-22T04:37:06;102029.38;;;16.81;93.71
60437;BME280;46289;51.992;4.498;2023-06-22T04:39:17;102034.16;;;16.92;93.64
60437;BME280;46289;51.992;4.498;2023-06-22T04:41:23;102024.66;;;17.05;93.51
60437;BME280;46289;51.992;4.498;2023-06-22T04:43:29;102024.09;;;17.18;93.33
60437;BME280;46289;51.992;4.498;2023-06-22T04:45:34;102028.69;;;17.31;92.16
60437;BME280;46289;51.992;4.498;2023-06-22T04:47:43;102025.97;;;17.50;91.68
60437;BME280;46289;51.992;4.498;2023-06-22T04:49:49;102027.16;;;17.62;91.08
60437;BME280;46289;51.992;4.498;2023-06-22T04:51:54;102027.16;;;17.80;90.82
60437;BME280;46289;51.992;4.498;2023-06-22T04:54:00;102025.44;;;17.96;90.21
60437;BME280;46289;51.992;4.498;2023-06-22T04:56:08;102026.81;;;18.03;89.78
60437;BME280;46289;51.992;4.498;2023-06-22T04:58:13;102029.25;;;18.08;89.27
60437;BME280;46289;51.992;4.498;2023-06-22T05:00:19;102030.44;;;18.02;89.66
60437;BME280;46289;51.992;4.498;2023-06-22T05:02:30;102027.94;;;17.99;89.58
60437;BME280;46289;51.992;4.498;2023-06-22T05:04:38;102027.22;;;18.13;89.43
60437;BME280;46289;51.992;4.498;2023-06-22T05:06:43;102029.66;;;18.33;88.71
60437;BME280;46289;51.992;4.498;2023-06-22T05:08:48;102026.44;;;18.60;88.04
60437;BME280;46289;51.992;4.498;2023-06-22T05:10:53;102031.44;;;18.82;86.78
60437;BME280;46289;51.992;4.498;2023-06-22T05:13:07;102029.03;;;19.09;86.26
60437;BME280;46289;51.992;4.498;2023-06-22T05:15:12;102022.91;;;19.23;84.92
60437;BME280;46289;51.992;4.498;2023-06-22T05:17:17;102028.19;;;19.39;84.50
60437;BME280;46289;51.992;4.498;2023-06-22T05:19:23;102021.25;;;19.50;82.98
60437;BME280;46289;51.992;4.498;2023-06-22T05:21:38;102023.25;;;19.77;82.29
60437;BME280;46289;51.992;4.498;2023-06-22T05:23:43;102016.72;;;19.97;81.27
60437;BME280;46289;51.992;4.498;2023-06-22T05:25:48;102012.63;;;19.91;80.42
60437;BME280;46289;51.992;4.498;2023-06-22T05:27:53;102013.28;;;20.24;80.60
60437;BME280;46289;51.992;4.498;2023-06-22T05:30:00;102017.75;;;20.09;79.99
60437;BME280;46289;51.992;4.498;2023-06-22T05:32:06;102026.88;;;19.90;80.76
60437;BME280;46289;51.992;4.498;2023-06-22T05:34:11;102021.47;;;19.78;81.24
60437;BME280;46289;51.992;4.498;2023-06-22T05:36:16;102015.97;;;19.65;81.63
60437;BME280;46289;51.992;4.498;2023-06-22T05:38:27;102016.78;;;19.67;81.53
60437;BME280;46289;51.992;4.498;2023-06-22T05:40:32;102018.41;;;19.84;81.01
60437;BME280;46289;51.992;4.498;2023-06-22T05:42:37;102012.72;;;20.33;78.75
60437;BME280;46289;51.992;4.498;2023-06-22T05:44:45;102016.41;;;20.45;78.03
60437;BME280;46289;51.992;4.498;2023-06-22T05:46:50;102014.22;;;20.08;78.77
60437;BME280;46289;51.992;4.498;2023-06-22T05:48:56;102031.88;;;19.97;80.07
60437;BME280;46289;51.992;4.498;2023-06-22T05:51:02;102022.81;;;19.99;79.41
60437;BME280;46289;51.992;4.498;2023-06-22T05:53:07;102014.63;;;20.02;79.15
60437;BME280;46289;51.992;4.498;2023-06-22T05:55:15;102022.78;;;19.85;79.16
60437;BME280;46289;51.992;4.498;2023-06-22T05:57:21;102024.53;;;19.86;79.41
60437;BME280;46289;51.992;4.498;2023-06-22T05:59:30;102022.78;;;19.85;79.83
60437;BME280;46289;51.992;4.498;2023-06-22T06:01:35;102020.41;;;20.09;79.64
60437;BME280;46289;51.992;4.498;2023-06-22T06:03:42;102025.69;;;19.96;79.20
60437;BME280;46289;51.992;4.498;2023-06-22T06:05:47;102026.63;;;19.95;79.36
60437;BME280;46289;51.992;4.498;2023-06-22T06:07:53;102012.16;;;19.99;79.56
60437;BME280;46289;51.992;4.498;2023-06-22T06:09:58;102013.84;;;20.00;79.26
60437;BME280;46289;51.992;4.498;2023-06-22T06:12:07;102020.69;;;19.90;79.46
60437;BME280;46289;51.992;4.498;2023-06-22T06:14:12;102022.25;;;19.94;79.24
60437;BME280;46289;51.992;4.498;2023-06-22T06:16:19;102016.91;;;19.94;79.76
60437;BME280;46289;51.992;4.498;2023-06-22T06:18:30;102016.31;;;20.03;79.47
60437;BME280;46289;51.992;4.498;2023-06-22T06:20:35;102012.72;;;20.04;79.33
60437;BME280;46289;51.992;4.498;2023-06-22T06:22:40;102012.34;;;20.10;79.32
60437;BME280;46289;51.992;4.498;2023-06-22T06:24:46;102013.00;;;20.14;79.24
60437;BME280;46289;51.992;4.498;2023-06-22T06:26:51;102007.84;;;20.11;79.54
60437;BME280;46289;51.992;4.498;2023-06-22T06:29:02;102017.47;;;20.13;79.97
60437;BME280;46289;51.992;4.498;2023-06-22T06:31:07;102010.53;;;20.25;79.64
60437;BME280;46289;51.992;4.498;2023-06-22T06:33:17;102003.94;;;20.31;79.43
60437;BME280;46289;51.992;4.498;2023-06-22T06:35:28;102002.03;;;20.33;78.99
60437;BME280;46289;51.992;4.498;2023-06-22T06:37:36;102001.63;;;20.25;79.08
60437;BME280;46289;51.992;4.498;2023-06-22T06:39:41;101999.53;;;20.30;79.07
60437;BME280;46289;51.992;4.498;2023-06-22T06:41:46;101994.56;;;20.52;78.52
60437;BME280;46289;51.992;4.498;2023-06-22T06:43:51;102001.34;;;20.72;77.92
60437;BME280;46289;51.992;4.498;2023-06-22T06:45:59;101997.34;;;20.92;77.76
60437;BME280;46289;51.992;4.498;2023-06-22T06:48:05;101998.38;;;21.04;77.44
60437;BME280;46289;51.992;4.498;2023-06-22T06:50:11;102002.91;;;21.29;76.53
60437;BME280;46289;51.992;4.498;2023-06-22T06:52:16;101996.16;;;21.23;75.69
60437;BME280;46289;51.992;4.498;2023-06-22T06:54:22;101994.09;;;21.14;75.89
60437;BME280;46289;51.992;4.498;2023-06-22T06:56:28;101986.63;;;21.46;74.71
60437;BME280;46289;51.992;4.498;2023-06-22T06:58:35;101987.28;;;21.63;73.84
60437;BME280;46289;51.992;4.498;2023-06-22T07:00:40;101989.84;;;21.90;73.17
60437;BME280;46289;51.992;4.498;2023-06-22T07:02:48;101986.69;;;22.47;70.66
60437;BME280;46289;51.992;4.498;2023-06-22T07:04:53;101984.06;;;22.58;69.87
60437;BME280;46289;51.992;4.498;2023-06-22T07:07:01;101985.88;;;22.95;67.69
60437;BME280;46289;51.992;4.498;2023-06-22T07:09:06;101996.78;;;23.05;66.83
60437;BME280;46289;51.992;4.498;2023-06-22T07:11:11;102000.97;;;23.44;65.97
60437;BME280;46289;51.992;4.498;2023-06-22T07:13:16;101989.81;;;23.26;64.69
60437;BME280;46289;51.992;4.498;2023-06-22T07:15:22;101979.38;;;23.45;64.54
60437;BME280;46289;51.992;4.498;2023-06-22T07:17:30;101974.84;;;23.81;63.08
60437;BME280;46289;51.992;4.498;2023-06-22T07:19:37;101972.41;;;23.78;63.19
60437;BME280;46289;51.992;4.498;2023-06-22T07:21:44;101964.34;;;24.01;62.09
60437;BME280;46289;51.992;4.498;2023-06-22T07:23:49;101961.03;;;24.31;62.12
60437;BME280;46289;51.992;4.498;2023-06-22T07:25:56;101965.78;;;24.50;61.08
60437;BME280;46289;51.992;4.498;2023-06-22T07:28:05;101971.75;;;24.53;60.03
60437;BME280;46289;51.992;4.498;2023-06-22T07:30:11;101967.88;;;24.46;58.13
60437;BME280;46289;51.992;4.498;2023-06-22T07:32:17;101965.66;;;24.51;56.93
60437;BME280;46289;51.992;4.498;2023-06-22T07:34:22;101956.56;;;24.75;56.65
60437;BME280;46289;51.992;4.498;2023-06-22T07:36:31;101965.63;;;24.95;55.50
60437;BME280;46289;51.992;4.498;2023-06-22T07:38:37;101960.69;;;24.79;56.54
60437;BME280;46289;51.992;4.498;2023-06-22T07:40:44;101950.19;;;25.08;54.95
60437;BME280;46289;51.992;4.498;2023-06-22T07:42:49;101948.34;;;25.20;54.58
60437;BME280;46289;51.992;4.498;2023-06-22T07:44:55;101945.66;;;25.09;55.37
60437;BME280;46289;51.992;4.498;2023-06-22T07:47:00;101944.03;;;24.85;55.49
60437;BME280;46289;51.992;4.498;2023-06-22T07:49:05;101933.75;;;24.90;53.09
60437;BME280;46289;51.992;4.498;2023-06-22T07:51:10;101936.97;;;24.84;53.20
60437;BME280;46289;51.992;4.498;2023-06-22T07:53:19;101939.66;;;25.16;52.44
60437;BME280;46289;51.992;4.498;2023-06-22T07:55:25;101932.72;;;25.66;51.61
60437;BME280;46289;51.992;4.498;2023-06-22T07:57:31;101933.19;;;25.71;51.23
60437;BME280;46289;51.992;4.498;2023-06-22T07:59:38;101936.69;;;25.19;50.68
60437;BME280;46289;51.992;4.498;2023-06-22T08:01:43;101934.91;;;25.51;49.79
60437;BME280;46289;51.992;4.498;2023-06-22T08:03:51;101930.91;;;25.45;49.53
60437;BME280;46289;51.992;4.498;2023-06-22T08:05:56;101928.81;;;25.79;48.92
60437;BME280;46289;51.992;4.498;2023-06-22T08:08:01;101934.16;;;25.70;49.63
60437;BME280;46289;51.992;4.498;2023-06-22T08:10:10;101927.22;;;25.98;48.91
60437;BME280;46289;51.992;4.498;2023-06-22T08:12:15;101923.66;;;26.28;47.99
60437;BME280;46289;51.992;4.498;2023-06-22T08:14:20;101925.66;;;26.36;48.70
60437;BME280;46289;51.992;4.498;2023-06-22T08:16:25;101925.66;;;26.36;47.82
60437;BME280;46289;51.992;4.498;2023-06-22T08:18:31;101923.06;;;26.24;48.06
60437;BME280;46289;51.992;4.498;2023-06-22T08:20:36;101914.06;;;26.64;48.65
60437;BME280;46289;51.992;4.498;2023-06-22T08:22:41;101923.44;;;26.70;47.68
60437;BME280;46289;51.992;4.498;2023-06-22T08:24:49;101919.03;;;26.79;46.74
60437;BME280;46289;51.992;4.498;2023-06-22T08:26:58;101922.28;;;26.82;47.67
60437;BME280;46289;51.992;4.498;2023-06-22T08:29:03;101924.72;;;27.05;47.30
60437;BME280;46289;51.992;4.498;2023-06-22T08:31:08;101923.13;;;27.41;46.46
60437;BME280;46289;51.992;4.498;2023-06-22T08:33:15;101914.91;;;27.23;45.21
60437;BME280;46289;51.992;4.498;2023-06-22T08:35:29;101921.38;;;27.50;45.13
60437;BME280;46289;51.992;4.498;2023-06-22T08:37:34;101906.00;;;27.97;43.94
60437;BME280;46289;51.992;4.498;2023-06-22T08:39:41;101912.56;;;27.57;43.86
60437;BME280;46289;51.992;4.498;2023-06-22T08:41:46;101909.06;;;27.75;43.67
60437;BME280;46289;51.992;4.498;2023-06-22T08:43:53;101909.69;;;27.59;44.18
60437;BME280;46289;51.992;4.498;2023-06-22T08:46:00;101908.94;;;27.67;43.23
60437;BME280;46289;51.992;4.498;2023-06-22T08:48:05;101902.69;;;27.76;42.96
60437;BME280;46289;51.992;4.498;2023-06-22T08:50:11;101908.34;;;27.83;43.47
60437;BME280;46289;51.992;4.498;2023-06-22T08:52:18;101911.25;;;27.62;43.92
60437;BME280;46289;51.992;4.498;2023-06-22T08:54:23;101909.22;;;27.36;44.54
60437;BME280;46289;51.992;4.498;2023-06-22T08:56:30;101902.28;;;27.81;44.01
60437;BME280;46289;51.992;4.498;2023-06-22T08:58:35;101907.28;;;27.93;43.49
60437;BME280;46289;51.992;4.498;2023-06-22T09:00:43;101907.75;;;28.16;44.14
60437;BME280;46289;51.992;4.498;2023-06-22T09:02:48;101901.19;;;28.19;44.40
60437;BME280;46289;51.992;4.498;2023-06-22T09:04:53;101900.16;;;28.02;44.99
60437;BME280;46289;51.992;4.498;2023-06-22T09:06:59;101892.06;;;28.20;44.72
60437;BME280;46289;51.992;4.498;2023-06-22T09:09:04;101893.22;;;27.62;45.98
60437;BME280;46289;51.992;4.498;2023-06-22T09:11:09;101904.38;;;27.30;45.39
60437;BME280;46289;51.992;4.498;2023-06-22T09:13:14;101901.56;;;26.83;47.85
60437;BME280;46289;51.992;4.498;2023-06-22T09:15:19;101903.00;;;26.77;48.64
60437;BME280;46289;51.992;4.498;2023-06-22T09:17:27;101896.28;;;27.30;49.10
60437;BME280;46289;51.992;4.498;2023-06-22T09:19:32;101898.97;;;27.40;46.95
60437;BME280;46289;51.992;4.498;2023-06-22T09:21:37;101899.41;;;27.35;47.12
60437;BME280;46289;51.992;4.498;2023-06-22T09:23:42;101896.47;;;27.19;47.82
60437;BME280;46289;51.992;4.498;2023-06-22T09:25:52;101888.81;;;26.85;48.44
60437;BME280;46289;51.992;4.498;2023-06-22T09:27:58;101888.38;;;26.99;49.31
60437;BME280;46289;51.992;4.498;2023-06-22T09:30:05;101890.19;;;27.08;49.50
60437;BME280;46289;51.992;4.498;2023-06-22T09:32:10;101879.63;;;27.44;48.36
60437;BME280;46289;51.992;4.498;2023-06-22T09:34:18;101884.97;;;26.78;45.90
60437;BME280;46289;51.992;4.498;2023-06-22T09:36:25;101885.69;;;26.80;47.01
60437;BME280;46289;51.992;4.498;2023-06-22T09:38:34;101877.06;;;27.43;47.23
60437;BME280;46289;51.992;4.498;2023-06-22T09:40:39;101878.72;;;27.53;47.06
60437;BME280;46289;51.992;4.498;2023-06-22T09:42:44;101877.03;;;27.52;46.81
60437;BME280;46289;51.992;4.498;2023-06-22T09:44:49;101881.66;;;27.32;46.94
60437;BME280;46289;51.992;4.498;2023-06-22T09:46:54;101871.97;;;27.40;46.68
60437;BME280;46289;51.992;4.498;2023-06-22T09:49:00;101873.44;;;27.05;46.70
60437;BME280;46289;51.992;4.498;2023-06-22T09:51:09;101872.78;;;26.74;48.25
60437;BME280;46289;51.992;4.498;2023-06-22T09:53:17;101868.78;;;26.78;47.99
60437;BME280;46289;51.992;4.498;2023-06-22T09:55:22;101866.25;;;26.76;47.28
60437;BME280;46289;51.992;4.498;2023-06-22T09:57:28;101868.78;;;26.78;48.63
60437;BME280;46289;51.992;4.498;2023-06-22T09:59:33;101859.84;;;26.77;48.90
60437;BME280;46289;51.992;4.498;2023-06-22T10:01:39;101865.50;;;27.03;48.50
60437;BME280;46289;51.992;4.498;2023-06-22T10:03:44;101864.94;;;26.90;48.25
60437;BME280;46289;51.992;4.498;2023-06-22T10:05:49;101872.47;;;26.67;48.29
60437;BME280;46289;51.992;4.498;2023-06-22T10:07:58;101867.34;;;26.44;46.79
60437;BME280;46289;51.992;4.498;2023-06-22T10:10:05;101881.88;;;26.63;46.39
60437;BME280;46289;51.992;4.498;2023-06-22T10:12:10;101882.16;;;26.60;47.74
60437;BME280;46289;51.992;4.498;2023-06-22T10:14:15;101878.88;;;26.66;48.34
60437;BME280;46289;51.992;4.498;2023-06-22T10:16:20;101872.91;;;26.82;47.97
60437;BME280;46289;51.992;4.498;2023-06-22T10:18:25;101878.13;;;27.03;47.96
60437;BME280;46289;51.992;4.498;2023-06-22T10:20:30;101874.47;;;26.55;47.64
60437;BME280;46289;51.992;4.498;2023-06-22T10:22:37;101874.00;;;26.50;46.72
60437;BME280;46289;51.992;4.498;2023-06-22T10:24:48;101880.81;;;26.35;48.64
60437;BME280;46289;51.992;4.498;2023-06-22T10:26:53;101880.66;;;26.26;49.50
60437;BME280;46289;51.992;4.498;2023-06-22T10:29:00;101875.47;;;26.64;48.46
60437;BME280;46289;51.992;4.498;2023-06-22T10:31:20;101872.84;;;26.23;47.63
60437;BME280;46289;51.992;4.498;2023-06-22T10:33:25;101876.69;;;26.21;48.22
60437;BME280;46289;51.992;4.498;2023-06-22T10:35:31;101869.47;;;26.31;49.13
60437;BME280;46289;51.992;4.498;2023-06-22T10:37:37;101870.81;;;26.06;49.38
60437;BME280;46289;51.992;4.498;2023-06-22T10:39:48;101876.22;;;25.96;50.24
60437;BME280;46289;51.992;4.498;2023-06-22T10:41:53;101873.84;;;26.13;49.94
60437;BME280;46289;51.992;4.498;2023-06-22T10:44:00;101875.13;;;26.18;49.29
60437;BME280;46289;51.992;4.498;2023-06-22T10:46:06;101870.72;;;25.77;51.32
60437;BME280;46289;51.992;4.498;2023-06-22T10:48:11;101875.53;;;25.73;51.62
60437;BME280;46289;51.992;4.498;2023-06-22T10:50:16;101879.31;;;25.92;51.90
60437;BME280;46289;51.992;4.498;2023-06-22T10:52:22;101882.72;;;26.03;51.82
60437;BME280;46289;51.992;4.498;2023-06-22T10:54:27;101882.41;;;25.87;51.68
60437;BME280;46289;51.992;4.498;2023-06-22T10:56:34;101877.06;;;25.97;51.75
60437;BME280;46289;51.992;4.498;2023-06-22T10:58:39;101879.81;;;26.26;50.62
60437;BME280;46289;51.992;4.498;2023-06-22T11:00:44;101887.75;;;26.27;50.46
60437;BME280;46289;51.992;4.498;2023-06-22T11:02:49;101880.91;;;26.14;48.64